x

Cape Elizabeth- 45nm Nw Of Aberdeen, Wa (46041) Wave Buoy

12:50pm - Sun 28th May 2017 All times are PDT. -7 hours from GMT.

  • Sig Wave height 3.3ft
  • Swell Direction
  • Peak Period 10s
  • Average Period 7s
  • Wind
    7mph, 7mph gusts
  • Sea Temp 54°f
  • Air Temp 52°f
  • Sea Pressure 1020.8mb
  • Cape Elizabeth- 45nm Nw Of Aberdeen, Wa
  • Cape Elizabeth- 45nm Nw Of Aberdeen, Wa

More Historic Weather Station data

Upgrade to MSW Pro to gain access to the past 30 days of data for over 8000 Wavebouys and Weather Stations around the globe.

Join Pro

Comparision Forecast

View Surf forecast
   
Sun 05/28 12:50pm 3.5ft 10s 7s 7 7 mph 1020.8mb 54f 52f
11:50am 3.5ft 10s 7s 7 9 mph 1021.1mb 54f 52f
10:50am 3.5ft 10s 7s 7 9 mph 1021mb 54f 51f
9:50am 3.5ft 10s 7s 4 7 mph 1021mb 54f 51f
8:50am 4ft 11s 7s 7 9 mph 1021mb 54f 51f
7:50am 4ft 11s 7s 4 7 mph 1021mb 54f 51f
6:50am 4ft 11s 7s 4 7 mph 1020.8mb 54f 51f
5:50am 4ft 11s 7s 2 4 mph 1020.2mb 54f 51f
4:50am 4ft 11s 7s 7 9 mph 1019.9mb 54f 51f
3:50am 4.5ft 11s 7s 7 11 mph 1020mb 54f 52f
2:50am 4.5ft 10s 7s 7 9 mph 1019.6mb 54f 53f
1:50am 4.5ft 11s 7s 9 13 mph 1019.2mb 54f 53f
12:50am 4.5ft 11s 7s 9 11 mph 1019.3mb 54f 53f
Sat 05/27 11:50pm 4.5ft 11s 7s 11 13 mph 1018.9mb 54f 53f
10:50pm 4.5ft 11s 7s 9 11 mph 1018.5mb 54f 54f
9:50pm 4.5ft 11s 7s 11 13 mph 1018.8mb 54f 54f
8:50pm 4.5ft 11s 7s 11 13 mph 1018.5mb 54f 54f
7:50pm 4.5ft 10s 7s 11 13 mph 1018.6mb 54f 54f
6:50pm 5ft 11s 7s 11 13 mph 1018.9mb 54f 53f
5:50pm 5ft 11s 8s 11 16 mph 1018.9mb 54f 51f
4:50pm 5ft 11s 7s 9 13 mph 1019.4mb 54f 51f
3:50pm 5.5ft 11s 8s 11 13 mph 1019.5mb 54f 51f
2:50pm 6ft 9s 8s 7 9 mph 1019.6mb 54f 51f
1:50pm 5ft 11s 8s 9 11 mph 1019.7mb 54f 51f
12:50pm 5ft 11s 7s 9 9 mph 1019.8mb 54f 50f
11:50am 4.5ft 10s 7s 7 9 mph 1019.9mb 54f 50f
10:50am 5.5ft 9s 8s 9 11 mph 1019.6mb 54f 50f
9:50am 5.5ft 9s 7s 7 9 mph 1019.5mb 53f 49f
8:50am 5.5ft 8s 7s 7 9 mph 1019.4mb 53f 49f
7:50am 6ft 9s 7s 7 9 mph 1018.9mb 53f 49f
6:50am 6.5ft 9s 7s 7 9 mph 1018.4mb 53f 49f
5:50am 6ft 9s 7s 9 11 mph 1017.8mb 52f 50f
4:50am 6ft 10s 7s 11 13 mph 1017.3mb 53f 50f
3:50am 6.5ft 10s 7s 11 13 mph 1017.1mb 53f 51f
2:50am 6ft 9s 7s 11 13 mph 1017mb 53f 52f
1:50am 6ft 10s 7s 13 16 mph 1016.7mb 53f 53f
12:50am 6ft 10s 7s 16 18 mph 1016.6mb 53f 53f
Fri 05/26 11:50pm 5.5ft 10s 7s 11 13 mph 1016.7mb 54f 54f
10:50pm 5.5ft 9s 7s 9 11 mph 1016.8mb 55f 54f
9:50pm 6ft 10s 7s 11 11 mph 1016.6mb 55f 54f
8:50pm 5ft 10s 7s 11 16 mph 1016.1mb 54f 55f
7:50pm 6ft 9s 7s 13 16 mph 1016.2mb 55f 55f
6:50pm 5.5ft 10s 7s 11 16 mph 1016.3mb 54f 56f
5:50pm 5.5ft 10s 7s 11 13 mph 1016.4mb 54f 56f
4:50pm 6ft 9s 7s 11 13 mph 1016.3mb 54f 55f
3:50pm 6ft 9s 7s 11 13 mph 1016mb 54f 53f
2:50pm 6ft 8s 7s 13 16 mph 1015.9mb 54f 53f
1:50pm 5.5ft 9s 7s 11 13 mph 1015.8mb 55f 54f
12:50pm 6.5ft 9s 7s 9 11 mph 1015.8mb 55f 54f
11:50am 6ft 9s 7s 9 11 mph 1015.6mb 54f 54f
10:50am 6ft 10s 7s 7 9 mph 1015.4mb 53f 53f
9:50am 5.5ft 10s 7s 4 9 mph 1015.4mb 53f 53f
8:50am 6.5ft 10s 8s 4 7 mph 1015mb 53f 53f
7:50am 6ft 10s 7s 4 4 mph 1014.6mb 52f 52f
6:50am 6ft 10s 8s 7 7 mph 1014.1mb 52f 53f
5:50am 6ft 10s 7s 9 11 mph 1013.7mb 52f 53f
4:50am 6ft 10s 7s 11 11 mph 1013.5mb 52f 53f
3:50am 6ft 10s 7s 9 11 mph 1013.3mb 52f 53f
2:50am 6.5ft 10s 7s 9 11 mph 1013.1mb 53f 53f
1:50am 8ft 10s 8s 9 9 mph 1013.1mb 53f 53f
12:50am 7ft 10s 7s 7 9 mph 1012.9mb 52f 53f
Thu 05/25 11:50pm 8.5ft 10s 8s 4 7 mph 1012.7mb 53f 53f
10:50pm 8ft 10s 8s 4 7 mph 1012.6mb 52f 53f
9:50pm 7ft 10s 7s 7 9 mph 1012.3mb 52f 53f
8:50pm 8ft 10s 8s 7 9 mph 1012mb 53f 53f
7:50pm 8ft 10s 8s 11 13 mph 1011.9mb 53f 54f
6:50pm 7.5ft 10s 7s 9 11 mph 1011.8mb 53f 54f
5:50pm 8ft 10s 8s 9 11 mph 1011.9mb 53f 54f
4:50pm 9.5ft 10s 8s 7 11 mph 1012.3mb 53f 53f
3:50pm 8.5ft 11s 8s 7 9 mph 1012.5mb 53f 53f
2:50pm 8.5ft 11s 8s 7 7 mph 1013mb 53f 53f
1:50pm 10ft 11s 8s 7 9 mph 1012.9mb 53f 53f
12:50pm 8ft 10s 8s 4 7 mph 1012.9mb 53f 53f
11:50am 9ft 11s 8s 2 4 mph 1013.2mb 52f 53f
10:50am 8.5ft 11s 8s 2 4 mph 1013.1mb 52f 52f
9:50am 10ft 11s 8s 2 4 mph 1013.4mb 52f 52f
8:50am 10ft 11s 8s  -  2 mph 1013.4mb 52f 52f
7:50am 10ft 11s 8s 2 4 mph 1013.3mb 52f 52f
6:50am 10ft 11s 8s 4 9 mph 1013.1mb 51f 52f
5:50am 9.5ft 11s 8s 7 9 mph 1013.2mb 51f 51f
4:50am 10.5ft 11s 8s 2 4 mph 1013.2mb 51f 51f
3:50am 10.5ft 11s 8s 4 4 mph 1013.3mb 51f 51f
2:50am 10.5ft 11s 7s 7 9 mph 1013.4mb 51f 51f
1:50am 12ft 10s 8s 7 9 mph 1013.5mb 51f 51f
12:50am 11.5ft 11s 8s 7 11 mph 1013.9mb 51f 51f
Wed 05/24 11:50pm 11ft 10s 8s 4 9 mph 1014.2mb 51f 51f
10:50pm 12.5ft 10s 8s 9 11 mph 1014.5mb 51f 52f
9:50pm 10ft 10s 8s 11 13 mph 1014.5mb 51f 52f